Chadron Municipal Airport
KCDR : now visible

Airfield :











YOU CAN JOIN US ON...

 
LOGIN :

Register | Disclaimer

   EN    FR    IT 

 









Legend :    VFR   Marginal VFR   IFR   Intensive IFR   Very Intensive IFR
Visi :
Ceiling :
>= 8 km
>= 3000ft
5 to 8 km
1000 to 3000 ft
1500m to 5 km
500 to 1000 ft
800 to 1500m
200 to 500 ft
< 800m
< 200 ft
Symbols :   Thunderstorms  Fog  Heavy snow  Heavy precipitations  Wind > 20 kt






- Airport Elevation : 3297 ft


KCDR - Chadron Municipal

CURRENT METAR :
  • 041553Z AUTO 22003KT 7SM -RA OVC100 20/16 A3014 RMK AO2 RAE12B48 SLP181 P0000 T02000156

EXPIRED METARs :
  • 041453Z AUTO 32010KT 4SM -RA OVC100 19/14 A3012 RMK AO2 RAB30 SLP175 P0002 60002 T01890144 52013
  • 041353Z AUTO 05005KT 7SM SCT085 BKN100 20/14 A3011 RMK AO2 SLP170 T02000144

TAF KCDR
Valid from the 04 at 16:00 until the 05 at 12:00 UTC


041548Z 0416/0512 30009KT 4SM -RA OVC080
FM041700 32010KT P6SM VCSH SCT080
FM041900 36010KT P6SM SKC
FM050100 10007KT P6SM SKC
KZDV FIR / North America



MET'MAP, your aeronautical weather chart ! - Copyright ORBIFLY December 2007 - Disclaimer

ORBIFLY MET'MAP TEAM :

Programming & Development : Alexandra Zaïnal
Concept & original design : Baudouin d'Aumeries
Assistance for programming : Marc-Olivier Méhu
Technical & hardware support : Manuel Goepfert

Contact : metmap@orbifly.com




SOURCES & CREDITS :

   NOAA       Earth
Advisory